Bookmark and Share
Track history (hours):
 

Maersk Windhoek

Last reported at 2014-Apr-16 22:33 UTC. Time now 2014-Apr-17 12:47 UTC.
Position N 36°00' W 005°15'.

Length 172 m; draft 5.3 m.

Type: Ship (hazmat cat A). MMSI: 370431000.

NotesDate/timePositionNaut miles runAvg speedWind from/ knotsBaromVisibWave heightAir tempDewpointWater temp
2014-Apr-16 22:33N 36°00' W 005°15'2018.6
2014-Apr-16 21:29N 35°55' W 005°39'1616.8
2014-Apr-16 20:33N 35°54' W 005°58'  
2014-Apr-11 16:10N 36°32' W 006°17'0 0.0
2014-Apr-11 01:22N 36°32' W 006°17'0 0.0
2014-Apr-10 22:16N 36°32' W 006°17'5 0.3
2014-Apr-10 08:23N 36°34' W 006°22'2 1.7
2014-Apr-10 07:30N 36°32' W 006°22'3611.8
2014-Apr-10 04:25N 35°58' W 006°09'1718.9
2014-Apr-10 03:32N 35°57' W 005°49'1717.2
2014-Apr-10 02:34N 35°59' W 005°28'1817.7
2014-Apr-10 01:34N 36°05' W 005°07'16218.0
2014-Apr-09 16:31N 36°41' W 001°50'7518.6
2014-Apr-09 12:28N 37°30' W 000°39'1718.8
2014-Apr-09 11:33N 37°43' W 000°25'1918.5
2014-Apr-09 10:33N 37°58' W 000°11'  
2014-Apr-07 02:26N 38°41' E 000°57'1617.0
2014-Apr-07 01:31N 38°30' E 001°12'1617.1
2014-Apr-07 00:33N 38°22' E 001°30'1817.3
2014-Apr-06 23:31N 38°14' E 001°51'  

Dump ship's entire track history

sailing weather and tide predictions

Maersk Windhoek — 3FWJ3 — position and weather